KCVG/CVG METAR and TAF weather

Enter ICAO airport designator
Station Type Date Time Source
KCVG METAR 2023/12/03 16:20 UTC NOAA

KCVG 031620Z 24018G26KT 10SM FEW010 OVC015 08/06 A2979 RMK AO2 PK WND 25027/1607 T00830061


Station Type Date Time Source
KCVG Decoded METAR 2023/12/03 16:20 UTC NOAA

CINCINNATI/NORTHERN KY INTERNATIONAL , KY, United States (KCVG) 39-03N 084-40W 269M
Dec 03, 2023 - 11:20 AM EST / 2023.12.03 1620 UTC
Wind: from the WSW (240 degrees) at 21 MPH (18 KT) gusting to 30 MPH (26 KT):0
Visibility: 10 mile(s):0
Sky conditions: overcast
Temperature: 46.9 F (8.3 C)
Dew Point: 43.0 F (6.1 C)
Relative Humidity: 86%
Pressure (altimeter): 29.79 in. Hg (1008 hPa)
ob: KCVG 031620Z 24018G26KT 10SM FEW010 OVC015 08/06 A2979 RMK AO2 PK WND 25027/1607 T00830061
cycle: 16

Station Type Date Time Source
KCVG TAF 2023/12/03 16:48 UTC NOAA

TAF
AMD KCVG 031546Z 0316/0418 22015G25KT P6SM VCSH OVC018
FM040000 26010G18KT P6SM BKN025
FM040400 24005KT P6SM SCT025
FM040800 20004KT P6SM SCT025
FM041000 13004KT P6SM BKN060
FM041500 10005KT P6SM VCSH OVC025

Example: see airport list